Orbital elements of INTELSAT 6B
| Launched | 21 December 1998 |
| Flight ended | – |
| Launch site | Europe's Spaceport, Kourou, French Guiana |
| Owner | United States |
| NORAD ID | 25585 |
| Alternative names |
IS-6B PAS-6B |
| Date fetched |
Epoch osculation |
Inc. [°] |
Ecc. | RA asc node [hr] |
Arg Peri. [°] |
Mean anom [°] |
Mean motion [rev/day] |
Abs. mag |
| Date fetched |
Epoch osculation |
Inc. [°] |
Ecc. | RA asc node [hr] |
Arg Peri. [°] |
Mean anom [°] |
Mean motion [rev/day] |
Abs. mag |
| 2026 May 03 17:57 | 2026 Apr 30 05:27:38 | 12.2607 | 0.00144 | 2.0779 | 172.9587 | 21.2085 | 0.99152 | 6.243 |
| 2026 May 02 17:57 | 2026 Apr 30 05:27:38 | 12.2607 | 0.00144 | 2.0779 | 172.9587 | 21.2085 | 0.99152 | 6.243 |
| 2026 May 01 17:56 | 2026 Apr 30 05:27:38 | 12.2607 | 0.00144 | 2.0779 | 172.9587 | 21.2085 | 0.99152 | 6.243 |
| 2026 Apr 30 17:56 | 2026 Apr 30 05:27:38 | 12.2607 | 0.00144 | 2.0779 | 172.9587 | 21.2085 | 0.99152 | 6.243 |
| 2026 Apr 29 17:57 | 2026 Apr 24 04:55:38 | 12.2512 | 0.00143 | 2.0809 | 172.7447 | 21.2085 | 0.99152 | 6.243 |
| 2026 Apr 28 17:56 | 2026 Apr 24 04:55:38 | 12.2512 | 0.00143 | 2.0809 | 172.7447 | 21.2085 | 0.99152 | 6.243 |
| 2026 Apr 27 17:58 | 2026 Apr 24 04:55:38 | 12.2512 | 0.00143 | 2.0809 | 172.7447 | 21.2085 | 0.99152 | 6.243 |
| 2026 Apr 26 17:58 | 2026 Apr 24 04:55:38 | 12.2512 | 0.00143 | 2.0809 | 172.7447 | 21.2085 | 0.99152 | 6.243 |
| 2026 Apr 25 17:58 | 2026 Apr 24 04:55:38 | 12.2512 | 0.00143 | 2.0809 | 172.7447 | 21.2085 | 0.99152 | 6.243 |
| 2026 Apr 24 17:59 | 2026 Apr 24 04:55:38 | 12.2512 | 0.00143 | 2.0809 | 172.7447 | 21.2085 | 0.99152 | 6.243 |
| 2026 Apr 23 17:57 | 2026 Apr 19 01:44:45 | 12.2433 | 0.00142 | 2.0835 | 173.7957 | 21.2085 | 0.99152 | 6.243 |
| 2026 Apr 22 17:57 | 2026 Apr 19 01:44:45 | 12.2433 | 0.00142 | 2.0835 | 173.7957 | 21.2085 | 0.99152 | 6.243 |
| 2026 Apr 21 17:57 | 2026 Apr 19 01:44:45 | 12.2433 | 0.00142 | 2.0835 | 173.7957 | 21.2085 | 0.99152 | 6.243 |
| 2026 Apr 20 17:57 | 2026 Apr 19 01:44:45 | 12.2433 | 0.00142 | 2.0835 | 173.7957 | 21.2085 | 0.99152 | 6.243 |
| 2026 Apr 19 17:58 | 2026 Apr 19 01:44:45 | 12.2433 | 0.00142 | 2.0835 | 173.7957 | 21.2085 | 0.99152 | 6.243 |
| 2026 Apr 18 17:56 | 2026 Apr 13 02:06:49 | 12.2339 | 0.00143 | 2.0866 | 175.1765 | 21.2085 | 0.99152 | 6.243 |
| 2026 Apr 16 17:57 | 2026 Apr 13 02:06:49 | 12.2339 | 0.00143 | 2.0866 | 175.1765 | 21.2085 | 0.99152 | 6.243 |
| 2026 Apr 14 17:57 | 2026 Apr 13 02:06:49 | 12.2339 | 0.00143 | 2.0866 | 175.1765 | 21.2085 | 0.99152 | 6.243 |
| 2026 Apr 13 17:57 | 2026 Apr 13 02:06:49 | 12.2339 | 0.00143 | 2.0866 | 175.1765 | 21.2085 | 0.99152 | 6.243 |
| 2026 Apr 12 17:57 | 2026 Apr 08 12:40:47 | 12.2266 | 0.00143 | 2.0888 | 176.1066 | 21.2085 | 0.99152 | 6.243 |
| 2026 Apr 11 17:57 | 2026 Apr 08 12:40:47 | 12.2266 | 0.00143 | 2.0888 | 176.1066 | 21.2085 | 0.99152 | 6.243 |
| 2026 Apr 10 17:58 | 2026 Apr 08 12:40:47 | 12.2266 | 0.00143 | 2.0888 | 176.1066 | 21.2085 | 0.99152 | 6.243 |
| 2026 Apr 09 18:01 | 2026 Apr 08 12:40:47 | 12.2266 | 0.00143 | 2.0888 | 176.1066 | 21.2085 | 0.99152 | 6.243 |
| 2026 Apr 08 17:57 | 2026 Apr 08 12:40:47 | 12.2266 | 0.00143 | 2.0888 | 176.1066 | 21.2085 | 0.99152 | 6.243 |
| 2026 Apr 07 17:57 | 2026 Apr 01 23:26:38 | 12.2159 | 0.00144 | 2.0921 | 176.9778 | 21.2085 | 0.99152 | 6.243 |
| 2026 Apr 06 17:57 | 2026 Apr 01 23:26:38 | 12.2159 | 0.00144 | 2.0921 | 176.9778 | 21.2085 | 0.99152 | 6.243 |